Terminal Aerodrome Forecast
Issued by NWS Jackson, KY

Home | Current Version | Previous Version | Text Only | Print | Product List | Glossary On
Versions: 1 2 3 4 5 6 7 8 9 10 11 12
431
FTUS43 KJKL 261720
TAFLOZ
TAF
KLOZ 261720Z 2618/2718 29007KT P6SM FEW100 FEW200
     FM270300 00000KT P6SM SCT080 BKN150
     FM271100 32004KT P6SM VCSH SCT050 BKN120=

USA.gov is the U.S. government's official web portal to all federal, state and local government web resources and services.